createdAt,value
2022-12-11T00:00:49.800Z,0.85
2022-12-11T00:03:18.420Z,0.68
2022-12-11T00:05:46.563Z,0.70
2022-12-11T00:08:14.286Z,0.60
2022-12-11T00:10:49.052Z,0.80
2022-12-11T00:13:16.012Z,1.08
2022-12-11T00:15:42.960Z,0.93
2022-12-11T00:18:13.917Z,0.85
2022-12-11T00:20:41.136Z,0.75
2022-12-11T00:23:08.081Z,0.80
2022-12-11T00:25:35.039Z,0.80
2022-12-11T00:28:01.952Z,0.85
2022-12-11T00:30:28.913Z,0.73
2022-12-11T00:32:55.828Z,0.70
2022-12-11T00:35:22.769Z,0.60
2022-12-11T00:37:49.651Z,0.85
2022-12-11T00:40:16.760Z,0.80
2022-12-11T00:42:43.630Z,0.50
2022-12-11T00:45:11.108Z,0.85
2022-12-11T00:47:38.131Z,0.80
2022-12-11T00:50:05.589Z,0.70
2022-12-11T00:52:32.617Z,0.85
2022-12-11T00:54:59.614Z,1.00
2022-12-11T00:57:26.525Z,0.63
2022-12-11T00:59:53.406Z,0.90
2022-12-11T01:02:20.389Z,0.75
2022-12-11T01:04:47.309Z,0.80
2022-12-11T01:07:14.265Z,1.20
2022-12-11T01:09:59.807Z,1.05
2022-12-11T01:12:28.625Z,0.88
2022-12-11T01:14:55.564Z,0.60
2022-12-11T01:17:22.504Z,0.98
2022-12-11T01:19:49.436Z,0.82
2022-12-11T01:22:16.407Z,0.98
2022-12-11T01:24:43.548Z,1.00
2022-12-11T01:27:10.489Z,0.80
2022-12-11T01:29:37.446Z,0.70
2022-12-11T01:32:05.047Z,0.88
2022-12-11T01:34:33.227Z,0.88
2022-12-11T01:37:00.193Z,0.90
2022-12-11T01:39:27.105Z,1.00
2022-12-11T01:41:58.132Z,0.73
2022-12-11T01:44:25.005Z,0.85
2022-12-11T01:46:52.325Z,1.00
2022-12-11T01:49:25.175Z,0.95
2022-12-11T01:51:52.178Z,0.85
2022-12-11T01:54:22.932Z,1.00
2022-12-11T01:56:53.302Z,0.80
2022-12-11T01:59:24.770Z,0.90
2022-12-11T02:02:15.829Z,0.73
2022-12-11T02:04:43.433Z,0.70
2022-12-11T02:07:10.917Z,0.65
2022-12-11T02:09:40.783Z,0.80
2022-12-11T02:12:39.082Z,0.70
2022-12-11T02:15:11.913Z,0.55
2022-12-11T02:18:07.587Z,0.65
2022-12-11T02:20:38.944Z,0.77
2022-12-11T02:23:24.659Z,0.85
2022-12-11T02:25:54.504Z,0.70
2022-12-11T02:28:25.333Z,0.40
2022-12-11T02:31:00.502Z,0.50
2022-12-11T02:33:38.794Z,0.70
2022-12-11T02:36:08.285Z,0.60
2022-12-11T02:38:39.403Z,0.50
2022-12-11T02:41:08.304Z,0.60
2022-12-11T02:43:38.003Z,0.60
2022-12-11T02:46:07.373Z,0.50
2022-12-11T02:48:36.063Z,0.60
2022-12-11T02:51:06.415Z,0.70
2022-12-11T02:53:37.653Z,0.50
2022-12-11T02:56:11.536Z,0.50
2022-12-11T02:58:44.515Z,0.88
2022-12-11T03:01:11.712Z,0.60
2022-12-11T03:03:38.719Z,0.52
2022-12-11T03:06:05.879Z,0.60
2022-12-11T03:08:33.300Z,0.90
2022-12-11T03:11:00.302Z,0.80
2022-12-11T03:13:27.767Z,0.90
2022-12-11T03:16:13.464Z,0.60
2022-12-11T03:19:01.289Z,0.60
2022-12-11T03:21:45.643Z,0.95
2022-12-11T03:24:23.722Z,0.82
2022-12-11T03:27:05.666Z,0.93
2022-12-11T03:29:41.183Z,1.00
2022-12-11T03:32:20.076Z,0.85
2022-12-11T03:34:58.077Z,0.80
2022-12-11T03:37:28.907Z,0.93
2022-12-11T03:40:01.293Z,0.90
2022-12-11T03:42:28.806Z,0.80
2022-12-11T03:44:59.051Z,1.00
2022-12-11T03:47:28.614Z,1.05
2022-12-11T03:49:58.227Z,1.08
2022-12-11T03:52:28.080Z,1.40
2022-12-11T03:54:58.752Z,1.33
2022-12-11T03:57:31.103Z,1.42
2022-12-11T03:59:58.875Z,1.37
2022-12-11T04:02:25.871Z,1.40
2022-12-11T04:04:52.889Z,1.60
2022-12-11T04:07:19.927Z,1.63
2022-12-11T04:09:46.894Z,1.38
2022-12-11T04:12:13.839Z,1.63
2022-12-11T04:14:59.967Z,1.85
2022-12-11T04:17:45.553Z,1.58
2022-12-11T04:20:31.111Z,1.92
2022-12-11T04:23:16.851Z,1.60
2022-12-11T04:25:43.830Z,1.80
2022-12-11T04:28:11.063Z,1.40
2022-12-11T04:30:38.109Z,1.63
2022-12-11T04:33:05.222Z,1.98
2022-12-11T04:35:32.197Z,1.95
2022-12-11T04:37:59.360Z,2.75
2022-12-11T04:40:26.391Z,2.40
2022-12-11T04:42:53.340Z,2.90
2022-12-11T04:45:20.322Z,4.25
2022-12-11T04:47:47.357Z,4.53
2022-12-11T04:50:15.592Z,4.20
2022-12-11T04:52:43.258Z,4.82
2022-12-11T04:55:11.537Z,3.88
2022-12-11T04:57:39.249Z,3.42
2022-12-11T05:00:08.237Z,2.90
2022-12-11T05:02:36.806Z,2.78
2022-12-11T05:05:09.930Z,2.83
2022-12-11T05:07:38.204Z,2.65
2022-12-11T05:10:06.357Z,2.50
2022-12-11T05:12:33.527Z,2.70
2022-12-11T05:15:00.683Z,2.95
2022-12-11T05:17:27.696Z,2.95
2022-12-11T05:19:54.716Z,2.78
2022-12-11T05:22:21.647Z,2.65
2022-12-11T05:24:48.648Z,2.53
2022-12-11T05:27:15.604Z,2.55
2022-12-11T05:29:42.641Z,2.75
2022-12-11T05:32:09.554Z,3.17
2022-12-11T05:34:36.544Z,3.38
2022-12-11T05:37:03.732Z,3.22
2022-12-11T05:39:30.693Z,2.67
2022-12-11T05:41:57.954Z,2.88
2022-12-11T05:44:25.684Z,2.63
2022-12-11T05:46:52.732Z,2.58
2022-12-11T05:49:20.164Z,2.55
2022-12-11T05:51:47.785Z,2.35
2022-12-11T05:54:15.391Z,3.00
2022-12-11T05:56:42.336Z,3.08
2022-12-11T05:59:09.939Z,2.85
2022-12-11T06:01:42.404Z,2.80
2022-12-11T06:04:11.426Z,2.70
2022-12-11T06:06:40.478Z,2.67
2022-12-11T06:09:07.841Z,3.60
2022-12-11T06:11:35.978Z,3.60
2022-12-11T06:14:04.168Z,3.55
2022-12-11T06:16:31.872Z,3.70
2022-12-11T06:18:59.153Z,3.72
2022-12-11T06:21:29.575Z,4.53
2022-12-11T06:23:58.605Z,3.78
2022-12-11T06:26:26.243Z,4.00
2022-12-11T06:28:53.345Z,4.45
2022-12-11T06:31:21.453Z,4.35
2022-12-11T06:33:48.588Z,3.58
2022-12-11T06:36:18.503Z,3.70
2022-12-11T06:38:46.000Z,3.55
2022-12-11T06:41:13.098Z,4.47
2022-12-11T06:43:41.314Z,4.00
2022-12-11T06:46:11.511Z,5.70
2022-12-11T06:48:38.730Z,7.43
2022-12-11T06:51:07.489Z,11.50
2022-12-11T06:53:34.940Z,17.13
2022-12-11T06:56:07.458Z,16.80
2022-12-11T06:58:35.990Z,9.40
2022-12-11T07:01:04.549Z,12.48
2022-12-11T07:03:31.657Z,17.63
2022-12-11T07:06:02.586Z,18.45
2022-12-11T07:08:30.232Z,13.73
2022-12-11T07:11:06.112Z,7.40
2022-12-11T07:13:33.893Z,7.20
2022-12-11T07:16:02.240Z,8.35
2022-12-11T07:18:29.454Z,13.57
2022-12-11T07:21:00.189Z,21.25
2022-12-11T07:23:28.511Z,14.65
2022-12-11T07:25:56.430Z,11.38
2022-12-11T07:28:24.162Z,8.00
2022-12-11T07:30:51.114Z,7.80
2022-12-11T07:33:18.441Z,12.07
2022-12-11T07:35:45.653Z,13.77
2022-12-11T07:38:12.643Z,9.55
2022-12-11T07:40:39.660Z,9.02
2022-12-11T07:43:07.223Z,10.95
2022-12-11T07:45:34.272Z,12.93
2022-12-11T07:48:01.217Z,13.10
2022-12-11T07:50:28.361Z,11.73
2022-12-11T07:52:55.410Z,11.93
2022-12-11T07:55:22.425Z,12.07
2022-12-11T07:57:49.403Z,14.50
2022-12-11T08:00:17.160Z,12.32
2022-12-11T08:02:44.161Z,10.60
2022-12-11T08:05:12.586Z,11.23
2022-12-11T08:07:40.155Z,11.38
2022-12-11T08:10:07.328Z,18.20
2022-12-11T08:12:34.602Z,17.95
2022-12-11T08:15:01.560Z,13.18
2022-12-11T08:17:31.803Z,12.88
2022-12-11T08:20:00.861Z,13.80
2022-12-11T08:22:27.745Z,11.10
2022-12-11T08:24:54.660Z,12.95
2022-12-11T08:27:21.642Z,10.45
2022-12-11T08:29:48.825Z,8.35
2022-12-11T08:32:17.028Z,7.97
2022-12-11T08:34:44.312Z,8.40
2022-12-11T08:37:11.343Z,8.15
2022-12-11T08:39:38.217Z,8.05
2022-12-11T08:42:05.389Z,8.38
2022-12-11T08:44:32.413Z,10.68
2022-12-11T08:46:59.618Z,10.88
2022-12-11T08:49:32.698Z,11.40
2022-12-11T08:52:01.339Z,10.63
2022-12-11T08:54:28.273Z,10.23
2022-12-11T08:56:58.167Z,10.20
2022-12-11T08:59:25.864Z,9.38
2022-12-11T09:01:54.344Z,10.32
2022-12-11T09:04:21.367Z,9.77
2022-12-11T09:06:48.615Z,8.48
2022-12-11T09:09:15.707Z,7.03
2022-12-11T09:11:42.922Z,12.90
2022-12-11T09:14:10.237Z,10.77
2022-12-11T09:16:40.639Z,9.15
2022-12-11T09:19:11.680Z,9.00
2022-12-11T09:21:38.698Z,7.53
2022-12-11T09:24:06.193Z,7.25
2022-12-11T09:26:33.119Z,8.95
2022-12-11T09:29:03.537Z,9.10
2022-12-11T09:31:33.248Z,8.75
2022-12-11T09:34:08.258Z,8.25
2022-12-11T09:36:35.428Z,9.25
2022-12-11T09:39:07.763Z,7.30
2022-12-11T09:42:00.253Z,7.85
2022-12-11T09:44:32.946Z,7.65
2022-12-11T09:47:00.707Z,6.93
2022-12-11T09:49:42.762Z,6.40
2022-12-11T09:52:18.600Z,7.00
2022-12-11T09:54:54.338Z,5.80
2022-12-11T09:57:36.445Z,6.07
2022-12-11T10:00:23.608Z,5.70
2022-12-11T10:02:56.672Z,5.40
2022-12-11T10:08:17.244Z,4.63
2022-12-11T10:10:46.875Z,4.93
2022-12-11T10:13:41.116Z,4.38
2022-12-11T10:16:14.274Z,5.22
2022-12-11T10:21:09.606Z,5.80
2022-12-11T10:23:54.722Z,4.78
2022-12-11T10:26:23.519Z,5.35
2022-12-11T10:28:50.651Z,5.35
2022-12-11T10:31:57.355Z,5.40
2022-12-11T10:34:40.205Z,4.18
2022-12-11T10:37:07.183Z,3.55
2022-12-11T10:39:34.147Z,6.10
2022-12-11T10:42:11.068Z,6.63
2022-12-11T10:44:37.959Z,6.82
2022-12-11T10:47:12.276Z,5.38
2022-12-11T10:49:44.440Z,5.03
2022-12-11T10:52:33.758Z,23.13
2022-12-11T10:55:10.417Z,14.65
2022-12-11T10:57:39.490Z,6.63
2022-12-11T11:00:26.530Z,7.55
2022-12-11T11:02:53.800Z,6.75
2022-12-11T11:05:36.076Z,8.70
2022-12-11T11:08:23.838Z,6.53
2022-12-11T11:10:52.132Z,6.47
2022-12-11T11:13:25.068Z,5.00
2022-12-11T11:16:01.937Z,5.72
2022-12-11T11:18:31.182Z,7.35
2022-12-11T11:20:59.285Z,6.57
2022-12-11T11:23:27.381Z,6.80
2022-12-11T11:25:54.964Z,5.82
2022-12-11T11:28:29.573Z,6.30
2022-12-11T11:31:01.841Z,6.22
2022-12-11T11:33:31.402Z,5.10
2022-12-11T11:36:07.286Z,6.45
2022-12-11T11:38:36.611Z,6.30
2022-12-11T11:41:39.914Z,6.47
2022-12-11T11:44:12.391Z,5.75
2022-12-11T11:46:44.595Z,4.43
2022-12-11T11:49:34.413Z,5.65
2022-12-11T11:52:19.730Z,6.00
2022-12-11T11:54:58.302Z,3.95
2022-12-11T11:57:55.761Z,4.50
2022-12-11T12:00:34.966Z,4.38
2022-12-11T12:03:10.274Z,3.35
2022-12-11T12:05:42.351Z,4.00
2022-12-11T12:08:21.700Z,4.80
2022-12-11T12:11:14.147Z,5.07
2022-12-11T12:14:43.714Z,5.47
2022-12-11T12:17:09.910Z,5.18
2022-12-11T12:20:04.220Z,5.93
2022-12-11T12:22:58.038Z,5.88
2022-12-11T12:25:58.626Z,5.60
2022-12-11T12:28:59.348Z,6.13
2022-12-11T12:31:52.304Z,5.50
2022-12-11T12:34:44.121Z,5.13
2022-12-11T12:37:36.812Z,5.63
2022-12-11T12:40:16.775Z,4.83
2022-12-11T12:42:46.404Z,4.45
2022-12-11T12:45:16.378Z,5.72
2022-12-11T12:47:53.049Z,5.28
2022-12-11T12:50:28.883Z,5.90
2022-12-11T12:52:57.063Z,6.20
2022-12-11T12:55:30.067Z,5.30
2022-12-11T12:58:01.316Z,4.70
2022-12-11T13:00:28.175Z,4.20
2022-12-11T13:02:56.729Z,4.70
2022-12-11T13:05:33.731Z,4.80
2022-12-11T13:08:05.823Z,4.07
2022-12-11T13:10:36.035Z,4.77
2022-12-11T13:13:05.693Z,5.13
2022-12-11T13:15:43.701Z,4.93
2022-12-11T13:18:37.530Z,4.70
2022-12-11T13:21:32.360Z,4.47
2022-12-11T13:24:17.731Z,4.55
2022-12-11T13:26:45.349Z,4.97
2022-12-11T13:29:37.258Z,4.78
2022-12-11T13:32:10.822Z,6.15
2022-12-11T13:34:41.632Z,5.93
2022-12-11T13:37:32.122Z,4.72
2022-12-11T13:40:00.819Z,4.97
2022-12-11T13:42:35.561Z,5.63
2022-12-11T13:45:03.715Z,5.63
2022-12-11T13:47:33.147Z,5.20
2022-12-11T13:50:25.665Z,6.50
2022-12-11T13:52:57.698Z,6.55
2022-12-11T13:55:28.068Z,7.70
2022-12-11T13:57:55.030Z,5.90
2022-12-11T14:00:28.310Z,5.45
2022-12-11T14:02:58.930Z,5.07
2022-12-11T14:05:26.111Z,7.78
2022-12-11T14:07:58.887Z,6.22
2022-12-11T14:10:28.380Z,6.38
2022-12-11T14:13:05.156Z,5.63
2022-12-11T14:15:34.892Z,6.72
2022-12-11T14:18:03.363Z,7.13
2022-12-11T14:20:33.548Z,6.80
2022-12-11T14:23:18.324Z,6.68
2022-12-11T14:26:00.620Z,8.52
2022-12-11T14:28:30.872Z,7.03
2022-12-11T14:31:00.549Z,7.22
2022-12-11T14:33:37.247Z,7.25
2022-12-11T14:36:05.503Z,7.03
2022-12-11T14:38:35.287Z,7.32
2022-12-11T14:41:13.592Z,8.20
2022-12-11T14:43:48.749Z,9.77
2022-12-11T14:46:26.208Z,8.80
2022-12-11T14:49:01.071Z,8.70
2022-12-11T14:51:35.029Z,9.15
2022-12-11T14:54:02.889Z,9.00
2022-12-11T14:56:31.754Z,8.77
2022-12-11T14:59:02.426Z,9.98
2022-12-11T15:01:32.849Z,10.88
2022-12-11T15:04:19.919Z,12.20
2022-12-11T15:06:49.274Z,12.93
2022-12-11T15:09:25.155Z,14.00
2022-12-11T15:11:55.206Z,11.55
2022-12-11T15:14:24.330Z,10.43
2022-12-11T15:16:53.232Z,10.80
2022-12-11T15:19:34.215Z,10.55
2022-12-11T15:22:06.559Z,10.15
2022-12-11T15:24:46.665Z,8.45
2022-12-11T15:27:22.206Z,8.52
2022-12-11T15:29:57.012Z,8.98
2022-12-11T15:32:24.857Z,7.13
2022-12-11T15:34:53.376Z,7.43
2022-12-11T15:37:30.718Z,7.10
2022-12-11T15:40:00.420Z,7.10
2022-12-11T15:42:35.355Z,8.02
2022-12-11T15:45:05.471Z,8.73
2022-12-11T15:47:33.008Z,8.27
2022-12-11T15:50:15.572Z,7.97
2022-12-11T15:52:42.645Z,9.53
2022-12-11T15:55:10.688Z,10.20
2022-12-11T15:57:37.878Z,10.65
2022-12-11T16:00:08.530Z,7.70
2022-12-11T16:02:35.509Z,7.80
2022-12-11T16:05:02.520Z,6.80
2022-12-11T16:07:29.929Z,6.90
2022-12-11T16:09:56.835Z,7.15
2022-12-11T16:12:23.767Z,7.20
2022-12-11T16:15:10.876Z,6.75
2022-12-11T16:17:38.409Z,6.95
2022-12-11T16:20:06.664Z,7.90
2022-12-11T16:22:33.655Z,9.13
2022-12-11T16:25:00.647Z,8.13
2022-12-11T16:27:27.687Z,7.55
2022-12-11T16:29:54.689Z,7.57
2022-12-11T16:32:21.832Z,6.93
2022-12-11T16:34:48.856Z,9.60
2022-12-11T16:37:15.830Z,7.72
2022-12-11T16:39:44.867Z,9.20
2022-12-11T16:42:11.794Z,7.50
2022-12-11T16:44:43.817Z,7.68
2022-12-11T16:47:11.405Z,7.47
2022-12-11T16:49:38.595Z,8.45
2022-12-11T16:52:05.602Z,8.60
2022-12-11T16:54:32.530Z,7.35
2022-12-11T16:56:59.512Z,8.10
2022-12-11T16:59:26.468Z,8.07
2022-12-11T17:01:53.439Z,7.03
2022-12-11T17:04:20.375Z,7.45
2022-12-11T17:06:47.377Z,8.73
2022-12-11T17:09:14.344Z,8.48
2022-12-11T17:11:41.237Z,13.00
2022-12-11T17:14:12.536Z,9.88
2022-12-11T17:16:39.635Z,12.90
2022-12-11T17:19:07.426Z,15.27
2022-12-11T17:21:34.385Z,16.90
2022-12-11T17:24:01.494Z,14.68
2022-12-11T17:26:28.804Z,14.98
2022-12-11T17:28:57.018Z,14.85
2022-12-11T17:31:24.425Z,23.10
2022-12-11T17:33:53.929Z,21.45
2022-12-11T17:36:22.213Z,17.80
2022-12-11T17:38:50.368Z,26.70
2022-12-11T17:41:20.790Z,31.95
2022-12-11T17:43:49.837Z,21.45
2022-12-11T17:46:17.246Z,16.55
2022-12-11T17:48:44.355Z,14.88
2022-12-11T17:51:13.847Z,15.23
2022-12-11T17:53:40.922Z,15.18
2022-12-11T17:56:08.993Z,13.10
2022-12-11T17:58:36.012Z,13.40
2022-12-11T18:01:08.234Z,12.82
2022-12-11T18:03:36.597Z,12.00
2022-12-11T18:06:07.502Z,11.98
2022-12-11T18:08:34.566Z,12.88
2022-12-11T18:11:13.490Z,13.02
2022-12-11T18:13:40.913Z,13.10
2022-12-11T18:16:12.430Z,12.50
2022-12-11T18:18:40.491Z,13.25
2022-12-11T18:21:07.515Z,11.68
2022-12-11T18:23:34.881Z,12.57
2022-12-11T18:26:01.826Z,12.00
2022-12-11T18:28:31.838Z,10.88
2022-12-11T18:31:03.487Z,9.80
2022-12-11T18:33:31.262Z,10.77
2022-12-11T18:35:58.949Z,11.77
2022-12-11T18:38:26.334Z,10.32
2022-12-11T18:40:53.764Z,11.07
2022-12-11T18:43:20.858Z,10.63
2022-12-11T18:45:47.945Z,10.52
2022-12-11T18:48:16.122Z,10.68
2022-12-11T18:50:47.993Z,10.70
2022-12-11T18:53:15.995Z,11.57
2022-12-11T18:55:44.692Z,11.65
2022-12-11T18:58:12.844Z,12.30
2022-12-11T19:00:42.111Z,11.82
2022-12-11T19:03:09.671Z,11.32
2022-12-11T19:05:37.124Z,11.95
2022-12-11T19:08:04.994Z,12.70
2022-12-11T19:10:32.108Z,24.38
2022-12-11T19:12:59.792Z,14.82
2022-12-11T19:15:28.148Z,12.32
2022-12-11T19:17:55.097Z,11.75
2022-12-11T19:23:09.003Z,12.55
2022-12-11T19:25:43.329Z,11.45
2022-12-11T19:28:10.888Z,11.30
2022-12-11T19:30:49.414Z,12.13
2022-12-11T19:33:17.660Z,12.45
2022-12-11T19:35:44.874Z,10.60
2022-12-11T19:38:16.104Z,10.55
2022-12-11T19:40:45.299Z,11.77
2022-12-11T19:43:12.749Z,11.18
2022-12-11T19:45:42.125Z,10.27
2022-12-11T19:48:10.072Z,13.45
2022-12-11T19:50:38.145Z,11.13
2022-12-11T19:53:06.184Z,13.90
2022-12-11T19:55:33.133Z,15.27
2022-12-11T19:58:00.852Z,14.85
2022-12-11T20:00:27.761Z,11.27
2022-12-11T20:02:54.676Z,10.88
2022-12-11T20:05:21.637Z,12.35
2022-12-11T20:07:49.477Z,14.68
2022-12-11T20:10:18.824Z,24.48
2022-12-11T20:12:46.077Z,13.85
2022-12-11T20:15:13.810Z,13.50
2022-12-11T20:17:44.608Z,11.52
2022-12-11T20:20:11.942Z,9.25
2022-12-11T20:22:39.616Z,7.15
2022-12-11T20:25:07.540Z,5.88
2022-12-11T20:27:34.763Z,6.35
2022-12-11T20:30:01.798Z,5.82
2022-12-11T20:32:28.709Z,6.38
2022-12-11T20:34:59.899Z,6.25
2022-12-11T20:37:29.102Z,7.05
2022-12-11T20:39:56.632Z,6.68
2022-12-11T20:42:24.657Z,7.03
2022-12-11T20:44:51.658Z,8.73
2022-12-11T20:47:19.941Z,7.75
2022-12-11T20:49:48.213Z,8.15
2022-12-11T20:52:15.522Z,8.60
2022-12-11T20:54:42.594Z,7.57
2022-12-11T20:57:10.320Z,7.80
2022-12-11T20:59:38.196Z,7.20
2022-12-11T21:02:05.733Z,7.10
2022-12-11T21:04:33.041Z,7.20
2022-12-11T21:07:00.884Z,6.95
2022-12-11T21:09:28.086Z,7.32
2022-12-11T21:11:58.373Z,7.85
2022-12-11T21:14:25.325Z,7.30
2022-12-11T21:16:52.465Z,6.70
2022-12-11T21:19:22.159Z,6.40
2022-12-11T21:21:49.768Z,7.28
2022-12-11T21:24:21.784Z,6.28
2022-12-11T21:26:49.540Z,4.88
2022-12-11T21:29:17.274Z,5.10
2022-12-11T21:31:44.590Z,5.60
2022-12-11T21:34:11.650Z,5.85
2022-12-11T21:36:38.570Z,5.82
2022-12-11T21:39:06.469Z,7.68
2022-12-11T21:41:33.406Z,9.13
2022-12-11T21:45:21.243Z,10.70
2022-12-11T21:46:47.489Z,10.23
2022-12-11T21:49:14.474Z,10.38
2022-12-11T21:51:46.778Z,8.60
2022-12-11T21:54:16.756Z,9.90
2022-12-11T21:56:44.429Z,9.07
2022-12-11T21:59:11.629Z,9.35
2022-12-11T22:01:42.302Z,10.13
2022-12-11T22:04:29.928Z,9.85
2022-12-11T22:07:30.379Z,9.55
2022-12-11T22:09:58.197Z,9.48
2022-12-11T22:12:28.163Z,7.78
2022-12-11T22:14:55.212Z,9.20
2022-12-11T22:17:26.297Z,8.07
2022-12-11T22:19:53.678Z,8.63
2022-12-11T22:22:20.780Z,8.48
2022-12-11T22:24:47.788Z,9.27
2022-12-11T22:27:17.893Z,8.68
2022-12-11T22:29:49.037Z,9.70
2022-12-11T22:32:15.990Z,9.23
2022-12-11T22:34:44.357Z,9.95
2022-12-11T22:37:36.070Z,9.55
2022-12-11T22:40:03.542Z,9.85
2022-12-11T22:42:30.699Z,10.68
2022-12-11T22:44:58.300Z,10.65
2022-12-11T22:47:25.355Z,10.32
2022-12-11T22:49:52.302Z,9.75
2022-12-11T22:52:19.224Z,10.52
2022-12-11T22:54:46.226Z,11.32
2022-12-11T22:57:14.388Z,10.75
2022-12-11T22:59:41.692Z,10.82
2022-12-11T23:02:08.917Z,11.77
2022-12-11T23:04:36.003Z,10.90
2022-12-11T23:07:03.087Z,10.40
2022-12-11T23:09:30.070Z,11.07
2022-12-11T23:11:58.528Z,10.65
2022-12-11T23:14:26.094Z,11.07
2022-12-11T23:16:53.055Z,9.77
2022-12-11T23:19:25.287Z,11.50
2022-12-11T23:21:52.973Z,11.35
2022-12-11T23:24:19.956Z,10.95
2022-12-11T23:26:48.226Z,11.27
2022-12-11T23:29:15.398Z,11.77
2022-12-11T23:31:42.315Z,11.20
2022-12-11T23:34:09.274Z,10.60
2022-12-11T23:36:36.285Z,11.07
2022-12-11T23:39:03.471Z,11.88
2022-12-11T23:41:30.588Z,11.10
2022-12-11T23:43:57.539Z,12.20
2022-12-11T23:46:25.612Z,11.98
2022-12-11T23:48:53.861Z,12.93
2022-12-11T23:51:23.513Z,11.82
2022-12-11T23:53:50.787Z,11.35
2022-12-11T23:56:27.177Z,11.38
2022-12-11T23:58:54.186Z,10.32
